Time;durP1;ratioP1;P1;durP2;ratioP2;P2;SDS_P1;SDS_P2;PMS_P1;PMS_P2;Temp;Humidity;BMP_temperature;BMP_pressure;BME280_temperature;BME280_humidity;BME280_pressure;Samples;Min_cycle;Max_cycle;Signal;HPM_P1;HPM_P2
2021/08/09 00:01:05;;;;;;;3.60;1.70;;;;;;;27.60;37.74;99577.00;5093290;28;20038;-73
2021/08/09 00:03:30;;;;;;;3.65;2.15;;;;;;;27.42;37.78;99550.59;5094326;28;20020;-74
2021/08/09 00:05:55;;;;;;;4.50;2.25;;;;;;;27.88;37.67;99620.66;5094440;28;20035;-75
2021/08/09 00:08:21;;;;;;;5.60;2.30;;;;;;;27.82;37.77;99619.91;5094583;28;20491;-74
2021/08/09 00:10:47;;;;;;;4.88;2.05;;;;;;;27.85;37.80;99624.75;5094264;28;20146;-74
2021/08/09 00:13:12;;;;;;;4.15;2.25;;;;;;;27.88;37.63;99631.50;5094345;28;20024;-74
2021/08/09 00:15:37;;;;;;;5.22;2.17;;;;;;;27.49;37.01;99589.03;5094302;28;20016;-74
2021/08/09 00:18:03;;;;;;;4.53;2.30;;;;;;;27.52;36.89;99621.03;5094049;28;20024;-74
2021/08/09 00:20:28;;;;;;;2.80;2.10;;;;;;;27.49;37.02;99627.00;5093920;28;20019;-76
2021/08/09 00:22:55;;;;;;;3.95;2.05;;;;;;;27.44;36.91;99652.25;5092573;28;20548;-75
2021/08/09 00:25:21;;;;;;;5.70;2.30;;;;;;;27.13;37.38;99611.09;5093876;28;20032;-76
2021/08/09 00:27:46;;;;;;;3.97;1.92;;;;;;;27.22;37.37;99633.75;5093582;28;20032;-74
2021/08/09 00:30:12;;;;;;;3.15;2.20;;;;;;;27.22;37.29;99627.53;5094055;28;20030;-74
2021/08/09 00:32:38;;;;;;;4.70;2.00;;;;;;;26.76;37.38;99557.47;5094017;28;20024;-75
2021/08/09 00:35:05;;;;;;;2.70;2.00;;;;;;;27.12;37.20;99617.59;5093729;28;20027;-73
2021/08/09 00:37:30;;;;;;;4.60;2.10;;;;;;;27.27;37.09;99632.91;5092440;28;20397;-75
2021/08/09 00:39:55;;;;;;;4.05;2.20;;;;;;;27.25;37.15;99626.16;5093746;28;20035;-75
2021/08/09 00:42:21;;;;;;;3.45;2.05;;;;;;;27.17;36.93;99630.28;5093777;28;20507;-75
2021/08/09 00:44:46;;;;;;;3.05;2.10;;;;;;;27.02;36.88;99627.72;5093737;28;20080;-75
2021/08/09 00:47:12;;;;;;;3.40;2.20;;;;;;;27.00;37.17;99638.03;5093529;28;20020;-75
2021/08/09 00:49:37;;;;;;;2.72;2.17;;;;;;;26.78;37.44;99631.13;5093447;28;20473;-75
2021/08/09 00:52:04;;;;;;;3.05;2.30;;;;;;;26.68;37.83;99616.81;5093545;28;20048;-76
2021/08/09 00:54:31;;;;;;;4.43;1.90;;;;;;;26.32;37.87;99576.41;5093481;28;20026;-75
2021/08/09 00:56:57;;;;;;;3.72;2.40;;;;;;;26.64;37.71;99626.59;5093421;28;20024;-74
2021/08/09 00:59:22;;;;;;;4.60;2.20;;;;;;;26.64;37.76;99621.19;5093464;28;20026;-74
2021/08/09 01:01:48;;;;;;;2.47;1.92;;;;;;;26.44;37.82;99612.09;5093379;28;20031;-73
2021/08/09 01:04:13;;;;;;;3.50;2.03;;;;;;;26.60;38.07;99629.88;5093074;28;20024;-74
2021/08/09 01:06:39;;;;;;;3.78;2.10;;;;;;;26.62;37.93;99640.44;5093118;28;20020;-74
2021/08/09 01:09:19;;;;;;;2.50;2.10;;;;;;;26.64;37.82;99646.38;5091904;28;20024;-74
2021/08/09 01:12:21;;;;;;;3.85;2.10;;;;;;;26.60;38.12;99632.59;5093196;28;20411;-75
2021/08/09 01:15:04;;;;;;;5.47;2.00;;;;;;;26.54;38.29;99628.28;5093345;28;20024;-74
2021/08/09 01:17:37;;;;;;;3.35;2.22;;;;;;;26.59;37.94;99636.38;5093167;28;20026;-74
2021/08/09 01:20:21;;;;;;;2.40;2.20;;;;;;;26.51;37.82;99631.56;5091769;28;20023;-74
2021/08/09 01:23:04;;;;;;;4.32;2.20;;;;;;;26.45;38.02;99632.69;5093070;28;20039;-73
2021/08/09 01:25:34;;;;;;;7.07;2.20;;;;;;;26.35;38.42;99629.22;5092855;28;20027;-73
2021/08/09 01:28:02;;;;;;;4.43;2.22;;;;;;;26.22;37.97;99617.91;5092822;28;20038;-74
2021/08/09 01:30:28;;;;;;;5.35;2.03;;;;;;;26.06;38.36;99594.72;5092802;28;20031;-73
2021/08/09 01:32:54;;;;;;;5.95;2.30;;;;;;;26.07;38.26;99603.63;5092826;28;20409;-73
2021/08/09 01:35:22;;;;;;;5.38;2.65;;;;;;;26.22;38.32;99633.31;5092700;28;20109;-74
2021/08/09 01:37:53;;;;;;;4.93;2.03;;;;;;;26.24;38.51;99631.97;5092755;28;20055;-73
2021/08/09 01:40:21;;;;;;;7.93;2.80;;;;;;;26.25;38.85;99625.47;5091926;28;20499;-74
2021/08/09 01:42:48;;;;;;;5.00;2.70;;;;;;;26.28;38.42;99640.34;5091439;28;20115;-74
2021/08/09 01:45:15;;;;;;;4.22;2.33;;;;;;;26.32;38.63;99646.81;5092738;28;20519;-75
2021/08/09 01:47:41;;;;;;;5.30;2.28;;;;;;;26.34;38.38;99631.13;5091083;28;20020;-74
2021/08/09 01:50:09;;;;;;;4.88;2.17;;;;;;;26.25;38.48;99597.59;5092515;28;20032;-74
2021/08/09 01:52:37;;;;;;;7.50;2.10;;;;;;;26.38;38.38;99624.06;5092508;28;20031;-73
2021/08/09 01:55:04;;;;;;;2.25;1.85;;;;;;;26.37;38.39;99625.16;5092316;28;20032;-74
2021/08/09 01:57:29;;;;;;;7.20;2.65;;;;;;;26.34;38.40;99630.31;5092237;28;20020;-73
2021/08/09 01:59:55;;;;;;;5.30;2.42;;;;;;;26.04;38.34;99606.91;5092310;28;20081;-74
2021/08/09 02:02:29;;;;;;;4.20;2.03;;;;;;;26.15;38.67;99630.13;5092259;28;20495;-74
2021/08/09 02:04:54;;;;;;;3.92;2.17;;;;;;;25.76;38.51;99592.91;5092223;28;20129;-74
2021/08/09 02:07:20;;;;;;;2.42;2.10;;;;;;;25.90;39.02;99634.53;5092121;28;20158;-73
2021/08/09 02:09:46;;;;;;;5.25;2.33;;;;;;;25.78;39.13;99638.63;5092020;28;20028;-74
2021/08/09 02:12:13;;;;;;;4.88;2.50;;;;;;;25.69;39.26;99634.88;5091960;28;20020;-74
2021/08/09 02:14:49;;;;;;;6.50;2.40;;;;;;;25.33;39.39;99597.88;5091857;28;20030;-74
2021/08/09 02:17:16;;;;;;;4.28;2.53;;;;;;;25.45;39.37;99640.03;5092170;28;20027;-74
2021/08/09 02:19:59;;;;;;;3.80;2.10;;;;;;;25.12;39.85;99604.38;5091999;28;20032;-74
2021/08/09 02:22:38;;;;;;;5.65;2.42;;;;;;;25.18;39.98;99633.00;5091964;28;20108;-74
2021/08/09 02:25:06;;;;;;;6.00;2.40;;;;;;;25.29;39.81;99637.34;5091611;28;20035;-78
2021/08/09 02:27:53;;;;;;;5.57;2.35;;;;;;;25.26;40.43;99642.47;5091756;28;20077;-78
2021/08/09 02:30:21;;;;;;;5.22;2.40;;;;;;;25.15;40.28;99646.25;5091740;28;20032;-78
2021/08/09 02:32:50;;;;;;;2.83;2.50;;;;;;;25.09;40.22;99652.75;5091732;28;20027;-78
2021/08/09 02:35:20;;;;;;;3.85;2.20;;;;;;;24.99;40.22;99657.06;5091386;28;20020;-78
2021/08/09 02:37:47;;;;;;;4.30;2.80;;;;;;;24.43;40.62;99572.44;5091682;28;20026;-78
2021/08/09 02:40:15;;;;;;;2.45;2.05;;;;;;;24.98;40.49;99650.03;5090357;28;20031;-78
2021/08/09 02:42:41;;;;;;;4.85;2.53;;;;;;;24.94;40.75;99656.22;5091877;28;20487;-78
2021/08/09 02:45:07;;;;;;;3.53;2.20;;;;;;;24.72;40.78;99632.16;5091387;28;20038;-78
2021/08/09 02:47:37;;;;;;;6.18;2.60;;;;;;;24.41;41.13;99598.91;5091434;28;20465;-78
2021/08/09 02:50:08;;;;;;;4.90;2.55;;;;;;;24.65;41.30;99656.75;5091630;28;20107;-78
2021/08/09 02:52:34;;;;;;;4.63;2.35;;;;;;;24.60;41.61;99658.63;5091400;28;20055;-78
2021/08/09 02:55:01;;;;;;;3.38;2.50;;;;;;;24.61;41.49;99661.06;5091220;28;20492;-78
2021/08/09 02:57:28;;;;;;;2.80;2.53;;;;;;;24.49;41.19;99629.94;5091156;28;20412;-78
2021/08/09 02:59:55;;;;;;;4.35;2.40;;;;;;;24.27;41.20;99601.28;5091336;28;20032;-78
2021/08/09 03:02:22;;;;;;;6.50;2.42;;;;;;;24.43;41.23;99625.63;5089939;28;20035;-78
2021/08/09 03:04:49;;;;;;;2.65;2.17;;;;;;;24.55;41.40;99659.41;5091260;28;20084;-78
2021/08/09 03:07:16;;;;;;;6.28;2.55;;;;;;;24.16;41.58;99609.59;5091171;28;20024;-77
2021/08/09 03:09:42;;;;;;;4.38;2.38;;;;;;;23.92;41.41;99583.09;5089985;28;20028;-77
2021/08/09 03:12:07;;;;;;;6.30;2.58;;;;;;;24.41;41.71;99660.97;5091158;28;20039;-78
2021/08/09 03:14:33;;;;;;;5.50;2.55;;;;;;;24.41;41.71;99655.56;5091252;28;20397;-77
2021/08/09 03:17:03;;;;;;;5.38;2.70;;;;;;;24.44;41.63;99655.03;5090019;28;20447;-78
2021/08/09 03:19:29;;;;;;;6.07;2.70;;;;;;;24.55;41.55;99664.00;5091256;28;20024;-78
2021/08/09 03:21:57;;;;;;;8.10;2.85;;;;;;;24.47;41.45;99659.09;5091263;28;20028;-78
2021/08/09 03:24:24;;;;;;;5.43;2.30;;;;;;;24.35;41.55;99651.25;5091215;28;20107;-73
2021/08/09 03:26:51;;;;;;;3.28;2.85;;;;;;;24.48;41.83;99676.91;5090981;28;20031;-73
2021/08/09 03:29:17;;;;;;;6.72;2.70;;;;;;;24.39;41.97;99680.13;5091104;28;20404;-74
2021/08/09 03:31:43;;;;;;;5.47;2.80;;;;;;;24.18;42.05;99650.63;5091236;28;20028;-73
2021/08/09 03:34:08;;;;;;;4.97;2.60;;;;;;;24.37;42.13;99676.88;5090946;28;20035;-74
2021/08/09 03:36:34;;;;;;;3.35;2.42;;;;;;;24.31;42.05;99675.25;5091073;28;20416;-74
2021/08/09 03:39:00;;;;;;;5.85;2.55;;;;;;;24.43;41.90;99679.59;5091060;28;20024;-74
2021/08/09 03:41:25;;;;;;;7.65;2.53;;;;;;;24.28;42.11;99653.38;5091090;28;20016;-74
2021/08/09 03:43:51;;;;;;;6.43;2.88;;;;;;;24.07;42.14;99626.31;5090978;28;20024;-73
2021/08/09 03:46:16;;;;;;;5.00;2.65;;;;;;;24.22;42.11;99670.59;5090776;28;20484;-73
2021/08/09 03:48:42;;;;;;;3.70;2.70;;;;;;;23.92;42.43;99630.81;5090797;28;20031;-73
2021/08/09 03:51:07;;;;;;;7.38;3.03;;;;;;;24.16;42.59;99677.03;5090769;28;20030;-73
2021/08/09 03:53:33;;;;;;;7.88;3.10;;;;;;;24.02;42.65;99665.94;5090787;28;20054;-73
2021/08/09 03:55:59;;;;;;;5.65;2.70;;;;;;;24.04;42.63;99664.59;5090807;28;20034;-73
2021/08/09 03:58:24;;;;;;;7.25;2.40;;;;;;;24.12;42.88;99684.84;5090764;28;20102;-73
2021/08/09 04:00:50;;;;;;;3.53;2.65;;;;;;;24.05;42.77;99673.50;5090683;28;20027;-73
2021/08/09 04:03:16;;;;;;;8.23;2.97;;;;;;;23.92;42.84;99668.59;5091439;28;20024;-74
2021/08/09 04:05:41;;;;;;;6.82;2.70;;;;;;;23.93;43.13;99689.09;5094606;28;20020;-74
2021/08/09 04:08:06;;;;;;;5.32;3.20;;;;;;;23.68;43.30;99658.19;5094339;28;20024;-74
2021/08/09 04:10:32;;;;;;;8.93;3.80;;;;;;;23.83;43.35;99680.94;5093253;28;20024;-74
2021/08/09 04:12:57;;;;;;;8.57;3.20;;;;;;;23.82;43.52;99687.41;5094368;28;20420;-74
2021/08/09 04:15:23;;;;;;;10.20;3.25;;;;;;;23.87;43.46;99687.44;5094373;28;20016;-74
2021/08/09 04:17:48;;;;;;;6.43;3.50;;;;;;;23.90;43.29;99689.59;5094315;28;20016;-73
2021/08/09 04:20:14;;;;;;;6.05;3.35;;;;;;;24.00;43.24;99687.78;5094339;28;20031;-74
2021/08/09 04:22:39;;;;;;;6.35;3.67;;;;;;;24.02;43.18;99690.22;5094097;28;20023;-74
2021/08/09 04:25:05;;;;;;;3.90;3.30;;;;;;;24.10;43.06;99695.09;5092641;28;20063;-74
2021/08/09 04:27:31;;;;;;;6.75;3.55;;;;;;;23.95;43.27;99678.84;5093948;28;20101;-73
2021/08/09 04:29:56;;;;;;;5.18;3.17;;;;;;;24.06;43.26;99702.91;5093877;28;20051;-74
2021/08/09 04:32:22;;;;;;;6.50;3.40;;;;;;;23.98;43.13;99681.81;5093833;28;20827;-73
2021/08/09 04:34:47;;;;;;;8.88;3.33;;;;;;;24.18;43.00;99710.78;5093923;28;20418;-74
2021/08/09 04:37:13;;;;;;;8.45;3.60;;;;;;;24.04;43.16;99704.25;5093919;28;20073;-74
2021/08/09 04:39:39;;;;;;;3.72;3.17;;;;;;;24.13;43.49;99712.66;5093863;28;20036;-73
2021/08/09 04:42:05;;;;;;;8.05;3.58;;;;;;;24.16;43.48;99707.53;5093778;28;20032;-74
2021/08/09 04:44:31;;;;;;;6.20;3.80;;;;;;;23.89;43.49;99669.91;5093895;28;20081;-74
2021/08/09 04:46:57;;;;;;;3.97;3.13;;;;;;;24.26;43.69;99714.88;5092411;28;20031;-74
2021/08/09 04:49:23;;;;;;;7.32;4.00;;;;;;;24.20;43.44;99711.34;5093729;28;20107;-74
2021/08/09 04:51:49;;;;;;;7.43;3.47;;;;;;;24.32;43.78;99727.34;5093749;28;20066;-74
2021/08/09 04:54:14;;;;;;;8.85;3.28;;;;;;;24.31;43.62;99725.72;5093580;28;20031;-73
2021/08/09 04:56:39;;;;;;;8.45;3.78;;;;;;;24.28;43.76;99732.44;5093366;28;20016;-74
2021/08/09 04:59:05;;;;;;;6.72;3.50;;;;;;;24.34;43.96;99734.09;5092205;28;20038;-73
2021/08/09 05:01:30;;;;;;;6.75;4.05;;;;;;;24.39;44.07;99738.69;5093403;28;20012;-74
2021/08/09 05:03:56;;;;;;;5.85;5.00;;;;;;;24.32;44.06;99716.53;5093216;28;20031;-74
2021/08/09 05:06:22;;;;;;;11.48;4.35;;;;;;;24.52;44.08;99734.69;5093028;28;20435;-75
2021/08/09 05:08:47;;;;;;;8.82;4.53;;;;;;;24.56;44.06;99738.50;5093255;28;20385;-74
2021/08/09 05:11:13;;;;;;;5.30;3.67;;;;;;;24.64;44.00;99744.22;5093164;28;20031;-74
2021/08/09 05:13:38;;;;;;;7.88;3.05;;;;;;;24.75;44.02;99745.06;5093090;28;20024;-74
2021/08/09 05:16:04;;;;;;;11.35;5.70;;;;;;;24.66;44.27;99720.47;5091978;28;20026;-74
2021/08/09 05:18:30;;;;;;;6.18;4.25;;;;;;;24.89;44.25;99740.75;5092792;28;20103;-74
2021/08/09 05:20:56;;;;;;;8.00;3.75;;;;;;;24.71;44.01;99706.97;5092928;28;20107;-74
2021/08/09 05:23:21;;;;;;;9.85;4.20;;;;;;;25.04;44.06;99750.81;5092481;28;20415;-75
2021/08/09 05:25:46;;;;;;;9.43;4.43;;;;;;;24.90;44.11;99725.38;5092603;28;20028;-74
2021/08/09 05:28:12;;;;;;;8.95;4.15;;;;;;;25.18;44.30;99760.03;5092597;28;20020;-74
2021/08/09 05:30:37;;;;;;;7.47;4.25;;;;;;;25.26;44.29;99753.28;5092690;28;20023;-75
2021/08/09 05:33:04;;;;;;;8.50;4.05;;;;;;;25.37;44.21;99743.31;5092747;28;20031;-74
2021/08/09 05:35:30;;;;;;;10.05;3.95;;;;;;;25.12;44.72;99712.47;5092555;28;20484;-74
2021/08/09 05:37:55;;;;;;;5.75;2.97;;;;;;;25.51;44.61;99744.38;5092598;28;20028;-74
2021/08/09 05:40:21;;;;;;;6.93;4.03;;;;;;;25.26;44.42;99688.41;5092610;28;20020;-73
2021/08/09 05:42:50;;;;;;;6.00;3.42;;;;;;;25.42;44.44;99710.88;5092634;28;20107;-74
2021/08/09 05:45:16;;;;;;;8.15;3.28;;;;;;;25.75;44.36;99750.88;5092408;28;20548;-74
2021/08/09 05:47:42;;;;;;;4.82;3.25;;;;;;;25.66;44.48;99725.47;5092112;28;20203;-74
2021/08/09 05:50:08;;;;;;;4.20;3.40;;;;;;;25.43;44.66;99683.56;5091558;28;20201;-74
2021/08/09 05:52:33;;;;;;;6.95;3.47;;;;;;;25.88;44.55;99747.59;5079311;28;20510;-74
2021/08/09 05:55:04;;;;;;;8.30;3.28;;;;;;;25.92;44.45;99740.56;5092082;28;20020;-74
2021/08/09 05:57:29;;;;;;;5.68;3.65;;;;;;;26.01;44.33;99738.13;5082777;28;20013;-74
2021/08/09 05:59:55;;;;;;;9.30;4.90;;;;;;;25.73;44.12;99692.72;5071838;28;20050;-73
2021/08/09 06:02:20;;;;;;;6.95;3.60;;;;;;;25.83;44.19;99696.22;5071762;28;20499;-73
2021/08/09 06:04:46;;;;;;;5.10;3.38;;;;;;;26.20;43.83;99747.28;5071817;28;20027;-74
2021/08/09 06:07:16;;;;;;;9.32;4.93;;;;;;;26.28;43.87;99745.91;5071545;28;20025;-74
2021/08/09 06:09:42;;;;;;;8.40;4.50;;;;;;;26.34;43.88;99735.91;5076329;28;20043;-74
2021/08/09 06:12:09;;;;;;;9.48;5.25;;;;;;;26.32;43.56;99730.72;5071901;28;20115;-73
2021/08/09 06:14:35;;;;;;;6.55;4.20;;;;;;;26.48;43.30;99748.56;5072278;28;20043;-74
2021/08/09 06:17:00;;;;;;;6.75;3.83;;;;;;;26.49;43.12;99738.53;5085457;28;20508;-74
2021/08/09 06:19:26;;;;;;;4.95;4.00;;;;;;;26.60;43.24;99738.22;5072380;28;20033;-74
2021/08/09 06:21:51;;;;;;;6.13;5.45;;;;;;;26.44;42.89;99709.59;5076099;28;20059;-74
2021/08/09 06:24:17;;;;;;;6.80;3.55;;;;;;;26.71;42.88;99747.09;5089873;28;20035;-73
2021/08/09 06:26:42;;;;;;;6.05;4.43;;;;;;;26.74;42.98;99748.44;5083074;28;20082;-74
2021/08/09 06:29:08;;;;;;;4.97;3.03;;;;;;;26.80;42.50;99747.34;5086211;28;20024;-74
2021/08/09 06:31:35;;;;;;;6.07;3.83;;;;;;;26.90;42.19;99742.66;5090355;28;20050;-73
2021/08/09 06:34:00;;;;;;;5.45;2.88;;;;;;;27.00;41.92;99749.16;5091402;28;20103;-75
2021/08/09 06:36:26;;;;;;;8.23;6.28;;;;;;;27.04;41.80;99747.50;5081145;28;20103;-74
2021/08/09 06:38:51;;;;;;;6.60;3.35;;;;;;;27.14;41.70;99748.22;5094996;28;20041;-74
2021/08/09 06:41:20;;;;;;;5.78;2.95;;;;;;;27.21;41.78;99756.03;5094309;28;20036;-73
2021/08/09 06:43:46;;;;;;;6.65;4.22;;;;;;;27.33;41.44;99742.13;5094433;28;20032;-73
2021/08/09 06:46:15;;;;;;;5.80;4.03;;;;;;;27.40;41.23;99742.59;5073459;28;20040;-74
2021/08/09 06:48:41;;;;;;;4.10;2.90;;;;;;;27.22;41.09;99706.16;5076655;28;20031;-75
2021/08/09 06:51:07;;;;;;;4.80;3.58;;;;;;;27.37;40.89;99716.06;5086728;28;20035;-74
2021/08/09 06:53:32;;;;;;;5.53;4.43;;;;;;;27.64;40.79;99754.38;5089965;28;20024;-74
2021/08/09 06:55:57;;;;;;;4.57;3.05;;;;;;;27.33;40.70;99690.59;5089195;28;20020;-74
2021/08/09 06:58:23;;;;;;;5.50;3.75;;;;;;;27.80;40.55;99744.19;5089451;28;20035;-74
2021/08/09 07:00:48;;;;;;;5.13;3.00;;;;;;;27.83;40.71;99730.06;5089194;28;20027;-74
2021/08/09 07:03:16;;;;;;;5.82;3.85;;;;;;;27.90;40.37;99722.38;5089153;28;20119;-74
2021/08/09 07:05:43;;;;;;;5.57;3.70;;;;;;;28.09;40.27;99739.53;5088594;28;20027;-73
2021/08/09 07:08:09;;;;;;;10.80;3.45;;;;;;;28.19;40.33;99744.03;5089414;28;20101;-73
2021/08/09 07:10:35;;;;;;;9.70;4.72;;;;;;;28.27;40.11;99745.38;5092612;28;20505;-74
2021/08/09 07:13:01;;;;;;;6.35;3.50;;;;;;;28.08;39.92;99710.78;5092655;28;20054;-73
2021/08/09 07:15:26;;;;;;;5.88;3.20;;;;;;;28.36;39.79;99736.28;5088030;28;20059;-75
2021/08/09 07:17:52;;;;;;;7.97;3.78;;;;;;;28.38;39.54;99736.00;5083049;28;20020;-73
2021/08/09 07:20:18;;;;;;;8.30;3.20;;;;;;;28.43;39.23;99735.94;5081027;28;20070;-73
2021/08/09 07:22:45;;;;;;;3.38;2.78;;;;;;;28.43;39.16;99734.03;5085211;28;20599;-74
2021/08/09 07:25:13;;;;;;;6.22;2.95;;;;;;;28.54;39.20;99739.34;5081694;28;20056;-74
2021/08/09 07:27:39;;;;;;;4.22;3.08;;;;;;;28.61;38.69;99735.16;5085757;28;20067;-75
2021/08/09 07:30:07;;;;;;;10.98;3.58;;;;;;;28.66;38.59;99728.84;5088485;28;20039;-75
2021/08/09 07:32:33;;;;;;;9.57;3.42;;;;;;;28.78;38.68;99729.22;5088868;28;20035;-74
2021/08/09 07:34:58;;;;;;;5.43;3.20;;;;;;;28.83;38.48;99737.28;5089547;28;20436;-74
2021/08/09 07:37:24;;;;;;;6.20;4.38;;;;;;;28.71;38.32;99718.72;5083948;28;20085;-74
2021/08/09 07:39:49;;;;;;;3.58;3.15;;;;;;;28.75;37.62;99702.63;5088364;28;20078;-74
2021/08/09 07:42:15;;;;;;;5.53;4.53;;;;;;;28.86;37.65;99712.28;5088037;28;20028;-74
2021/08/09 07:44:40;;;;;;;6.13;4.28;;;;;;;29.14;37.24;99736.91;5100547;28;20027;-74
2021/08/09 07:47:06;;;;;;;8.65;7.25;;;;;;;29.23;37.19;99732.41;5088322;28;20024;-74
2021/08/09 07:49:31;;;;;;;4.20;3.40;;;;;;;29.08;36.91;99688.03;5095881;28;20027;-76
2021/08/09 07:51:56;;;;;;;5.00;3.00;;;;;;;29.44;36.97;99735.63;5093322;28;20016;-75
2021/08/09 07:54:24;;;;;;;4.22;3.47;;;;;;;29.18;36.47;99673.47;5105257;28;20457;-73
2021/08/09 07:56:50;;;;;;;7.93;5.10;;;;;;;29.41;36.32;99690.75;5093534;27;20504;-73
2021/08/09 07:59:15;;;;;;;8.88;6.05;;;;;;;29.75;36.12;99727.75;5093276;28;20024;-74
2021/08/09 08:01:40;;;;;;;6.88;5.60;;;;;;;29.64;36.18;99686.28;5092104;28;20020;-74
2021/08/09 08:04:06;;;;;;;7.03;5.10;;;;;;;29.93;35.56;99721.41;5093159;28;20028;-73
2021/08/09 08:06:32;;;;;;;7.35;3.00;;;;;;;29.99;35.18;99726.47;5091450;28;20534;-73
2021/08/09 08:08:58;;;;;;;6.30;3.70;;;;;;;30.01;35.01;99726.16;5086934;28;20550;-74
2021/08/09 08:11:24;;;;;;;8.70;3.72;;;;;;;29.82;34.85;99684.63;5090400;28;20032;-74
2021/08/09 08:13:49;;;;;;;8.93;5.40;;;;;;;30.10;34.65;99731.75;5085535;28;20415;-74
2021/08/09 08:16:15;;;;;;;5.85;3.70;;;;;;;30.15;34.52;99718.03;5093545;28;20027;-74
2021/08/09 08:18:40;;;;;;;5.20;3.28;;;;;;;30.27;33.69;99716.41;5088600;28;20043;-74
2021/08/09 08:21:05;;;;;;;7.07;6.35;;;;;;;29.89;34.08;99642.25;5092509;28;20103;-74
2021/08/09 08:23:31;;;;;;;5.80;5.25;;;;;;;30.24;33.85;99669.91;5092234;28;20019;-74
2021/08/09 08:25:56;;;;;;;8.50;6.93;;;;;;;30.53;33.86;99694.91;5090834;28;20568;-73
2021/08/09 08:28:22;;;;;;;6.90;5.90;;;;;;;30.77;33.60;99719.19;5091979;28;20020;-74
2021/08/09 08:30:49;;;;;;;8.07;3.85;;;;;;;30.88;33.60;99722.50;5089249;28;20077;-74
2021/08/09 08:33:15;;;;;;;4.10;3.70;;;;;;;30.70;33.14;99677.13;5083518;28;20032;-76
2021/08/09 08:35:40;;;;;;;3.15;2.80;;;;;;;30.89;32.89;99689.47;5089462;28;20020;-74
2021/08/09 08:38:05;;;;;;;4.68;4.15;;;;;;;31.13;32.38;99702.78;5088976;28;20058;-74
2021/08/09 08:40:31;;;;;;;6.25;5.63;;;;;;;31.26;32.33;99710.16;5089447;28;20059;-73
2021/08/09 08:42:57;;;;;;;2.97;2.72;;;;;;;31.05;31.81;99659.09;5087190;28;20024;-72
2021/08/09 08:45:23;;;;;;;5.40;3.22;;;;;;;31.46;31.61;99706.09;5079721;28;20040;-74
2021/08/09 08:47:50;;;;;;;4.88;3.08;;;;;;;31.31;31.82;99656.59;5089662;28;20441;-72
2021/08/09 08:50:18;;;;;;;4.22;3.10;;;;;;;31.69;31.78;99709.59;5097455;28;20049;-74
2021/08/09 08:52:47;;;;;;;6.95;4.53;;;;;;;31.80;31.77;99705.50;5091442;28;20152;-73
2021/08/09 08:55:17;;;;;;;5.72;2.90;;;;;;;31.87;31.37;99694.94;5089653;28;21077;-73
2021/08/09 08:57:45;;;;;;;4.53;3.55;;;;;;;32.06;30.81;99705.63;5090800;28;20020;-75
2021/08/09 09:00:12;;;;;;;4.30;2.78;;;;;;;31.72;30.84;99638.03;5086125;28;20500;-76
2021/08/09 09:02:39;;;;;;;4.90;3.08;;;;;;;32.17;30.68;99681.56;5089412;28;20126;-75
2021/08/09 09:05:14;;;;;;;6.75;3.05;;;;;;;32.09;30.67;99633.97;5072679;28;20078;-75
2021/08/09 09:07:45;;;;;;;6.10;2.83;;;;;;;32.66;30.55;99698.69;5089771;28;20440;-75
2021/08/09 09:10:21;;;;;;;3.10;2.80;;;;;;;32.82;30.35;99699.88;5089603;28;20055;-75
2021/08/09 09:13:15;;;;;;;5.70;3.00;;;;;;;32.79;29.57;99670.44;5090601;28;20028;-74
2021/08/09 09:15:59;;;;;;;5.43;2.80;;;;;;;33.17;29.76;99706.13;5080332;28;20042;-75
2021/08/09 09:18:29;;;;;;;6.53;2.90;;;;;;;33.36;29.18;99698.41;5092688;28;20028;-74
2021/08/09 09:20:55;;;;;;;3.70;2.35;;;;;;;33.55;28.72;99708.19;5090810;28;20024;-74
2021/08/09 09:23:23;;;;;;;4.90;2.70;;;;;;;33.75;27.96;99700.06;5086375;28;20119;-78
2021/08/09 09:25:50;;;;;;;4.72;3.28;;;;;;;33.71;27.78;99662.72;5091810;28;20055;-79
2021/08/09 09:28:32;;;;;;;4.55;2.88;;;;;;;34.13;27.39;99699.28;5091427;28;20141;-78
2021/08/09 09:31:16;;;;;;;3.17;2.67;;;;;;;33.98;27.26;99647.78;5088832;28;20031;-79
2021/08/09 09:33:48;;;;;;;4.60;2.65;;;;;;;34.47;26.69;99687.34;5090777;28;20030;-79
2021/08/09 09:36:13;;;;;;;3.90;2.67;;;;;;;34.60;26.46;99682.72;5092257;28;20023;-80
2021/08/09 09:38:43;;;;;;;3.03;2.35;;;;;;;34.79;26.11;99679.50;5092396;28;20016;-78
2021/08/09 09:41:09;;;;;;;2.78;2.50;;;;;;;34.89;25.59;99670.91;5092248;28;20102;-79
2021/08/09 09:43:42;;;;;;;3.13;2.50;;;;;;;35.07;25.84;99672.38;5089155;28;20024;-78
2021/08/09 09:46:21;;;;;;;4.35;3.63;;;;;;;35.29;25.68;99669.22;5090900;28;20027;-77
2021/08/09 09:48:47;;;;;;;6.20;2.47;;;;;;;35.26;24.90;99647.94;5092140;28;20560;-78
2021/08/09 09:51:14;;;;;;;4.63;2.38;;;;;;;35.40;23.99;99671.56;5077410;28;20123;-79
2021/08/09 09:53:41;;;;;;;3.35;2.67;;;;;;;35.46;23.79;99667.47;5089627;28;20053;-79
2021/08/09 09:56:07;;;;;;;2.90;2.00;;;;;;;35.58;24.06;99668.28;5089329;28;20043;-79
2021/08/09 09:58:34;;;;;;;5.32;2.15;;;;;;;35.45;24.05;99608.19;5091763;28;20031;-79
2021/08/09 10:01:00;;;;;;;4.13;3.42;;;;;;;36.06;23.37;99654.94;5089775;28;20040;-78
2021/08/09 10:03:26;;;;;;;2.50;2.30;;;;;;;35.67;22.86;99602.25;5088856;28;20463;-78
2021/08/09 10:05:52;;;;;;;4.05;2.17;;;;;;;36.17;22.56;99659.63;5090706;28;20030;-79
2021/08/09 10:08:19;;;;;;;3.00;1.95;;;;;;;36.30;21.95;99657.69;5086036;28;20492;-78
2021/08/09 10:10:49;;;;;;;2.78;2.10;;;;;;;36.39;22.09;99657.53;5071446;28;20028;-78
2021/08/09 10:13:20;;;;;;;4.47;2.33;;;;;;;36.37;21.95;99635.91;5076835;28;20103;-78
2021/08/09 10:15:59;;;;;;;5.32;2.28;;;;;;;36.72;22.01;99651.84;5090209;28;20032;-78
2021/08/09 10:18:27;;;;;;;4.32;2.40;;;;;;;36.94;21.75;99650.53;5090131;28;20496;-79
2021/08/09 10:20:54;;;;;;;2.60;2.20;;;;;;;37.02;21.34;99635.81;5086774;28;20028;-79
2021/08/09 10:23:48;;;;;;;4.65;2.85;;;;;;;37.22;20.83;99640.31;5090131;28;20031;-79
2021/08/09 10:26:34;;;;;;;4.88;2.58;;;;;;;37.16;20.60;99617.75;5089391;28;20035;-77
2021/08/09 10:29:06;;;;;;;3.45;2.30;;;;;;;37.61;20.06;99638.56;5089777;28;20252;-78
2021/08/09 10:31:39;;;;;;;2.95;2.13;;;;;;;37.72;19.71;99642.41;5088992;28;20522;-78
2021/08/09 10:34:07;;;;;;;3.25;2.28;;;;;;;37.58;19.98;99597.94;5088781;28;20509;-78
2021/08/09 10:37:08;;;;;;;11.57;2.97;;;;;;;37.92;19.33;99636.97;5090445;28;20097;-78
2021/08/09 10:39:45;;;;;;;4.05;2.75;;;;;;;38.13;19.69;99635.50;5091034;28;20028;-78
2021/08/09 10:42:25;;;;;;;3.25;2.70;;;;;;;37.72;19.04;99561.69;5089491;28;20036;-78
2021/08/09 10:44:50;;;;;;;4.55;2.50;;;;;;;38.27;18.76;99626.78;5089535;28;20019;-78
2021/08/09 10:47:45;;;;;;;2.40;2.20;;;;;;;38.46;19.06;99626.78;5090701;28;20039;-78
2021/08/09 10:50:25;;;;;;;6.95;2.40;;;;;;;38.62;19.07;99623.97;5090569;28;20102;-77
2021/08/09 10:52:51;;;;;;;;;;;;;;;38.67;19.19;99628.44;5091488;28;20028;-79
2021/08/09 10:55:35;;;;;;;3.13;2.17;;;;;;;38.90;18.91;99626.53;5091031;28;20461;-78
2021/08/09 10:58:04;;;;;;;3.38;2.25;;;;;;;38.92;18.70;99626.16;5077574;28;20500;-80
2021/08/09 11:00:39;;;;;;;3.43;2.47;;;;;;;39.08;19.11;99632.41;5069221;28;20420;-78
2021/08/09 11:03:13;;;;;;;4.32;2.40;;;;;;;39.33;18.59;99614.31;5073048;28;20069;-78
2021/08/09 11:05:39;;;;;;;3.35;3.10;;;;;;;39.49;18.01;99618.97;5087821;28;20020;-77
2021/08/09 11:08:23;;;;;;;3.45;3.15;;;;;;;39.58;18.54;99625.81;5089490;28;20021;-78
2021/08/09 11:10:51;;;;;;;3.80;2.53;;;;;;;39.71;18.03;99613.41;5090909;28;20028;-76
2021/08/09 11:13:17;;;;;;;2.92;2.40;;;;;;;39.51;18.22;99567.69;5089089;28;20039;-76
2021/08/09 11:15:59;;;;;;;5.95;2.38;;;;;;;39.93;18.22;99616.50;5088112;28;20068;-77
2021/08/09 11:18:27;;;;;;;6.03;2.60;;;;;;;39.86;17.86;99616.38;5084484;28;20157;-76
2021/08/09 11:21:02;;;;;;;4.40;4.03;;;;;;;40.09;18.02;99617.13;5093735;28;20024;-78
2021/08/09 11:23:47;;;;;;;2.85;2.30;;;;;;;40.14;17.32;99583.63;5094181;28;20503;-78
2021/08/09 11:26:27;;;;;;;2.70;2.20;;;;;;;40.52;17.19;99610.22;5093686;28;20028;-78
2021/08/09 11:29:03;;;;;;;2.53;2.13;;;;;;;40.61;17.37;99605.19;5080454;28;20124;-78
2021/08/09 11:31:43;;;;;;;3.20;2.47;;;;;;;40.79;17.47;99610.94;5091720;28;20085;-77
2021/08/09 11:34:09;;;;;;;5.10;2.10;;;;;;;40.62;17.19;99562.50;5093242;28;20497;-79
2021/08/09 11:36:34;;;;;;;7.03;2.95;;;;;;;41.01;17.20;99594.59;5092806;28;20020;-78
2021/08/09 11:39:02;;;;;;;4.85;2.42;;;;;;;40.90;16.95;99573.13;5092921;28;20016;-79